Skopje Airport

 Skopje "Alexander the Great" Airport (IATA: SKP, ICAO: LWSK) is the largest and busiest of the two international airports in Skopje FIR. It is located 17 km (11 mi) southeast of the national capital Skopje in the Municipality of Petrovec.

Runway details

RwyLengthCourseElevationILSILS freqILS FACGlidepath
16 9679ft / 2950 m 163° 780ft Block32 Block32 Block32 3.0°
34 9679ft / 2950 m 343° 768ft Check32 108.7 343° 3.3°

 

Charts for Skopje Airport
General Information Download
Aerodrome Chart Download
Aircraft Parking/Docking Chart Download
Standard Instrument Departure - Runway 16 Download
Standard Instrument Departure - Runway 34 Download
Standard Instrument Arrival Download
Instrument Approach - ILS 34 (ACFT CAT A,B) Download
Instrument Approach - ILS 34 (ACFT CAT C,D) Download
Instrument Approach - VOR 34 (ACFT CAT A,B) Download
Instrument Approach - VOR 34 (ACFT CAT C,D) Download
Aerodrome Obstacle chart A - Runway 16 Download
Aerodrome Obstacle chart A - Runway 34 Download
Minimum Radar Vector Altitudes - TMA Skopje Download
All Charts in one Download
Scenery for Skopje Airprot
FS2004 / FSX / P3D (payware, Ivano Marongiu) Download
FS2004 (freeware, AFCAD) Download
FS2004 (freeware, BETA version (NOT AFCAD)) Download
FSX (freeware, AFCAD) Download
X-Plane (freeware) Download
X-Plane - another scenery (freeware) Download
FSX mesh-up Download
Useful documents
Pilot Breefing Download

Official website of Skopje Airport...Click here

Latest weather information

[source: UHMR]
METAR
LWSK 300830Z 29005KT 9999 -RA FEW020 SCT050 OVC090 11/08 Q1017 NOSIG =
LWOH 300830Z 30008KT 9999 OVC050 13/07 Q1013 =
TAF
TAF LWSK 300830Z 3009/0109 32010KT 9999 SCT050 BKN100 TEMPO 3009/3012 RA FEW020 BKN040 OVC070 PROB40 TEMPO 3012/3018 VRB20KT TSRA SCT033CB OVC040 =
TAF LWOH 300230Z 3003/0103 VRB02KT 9999 SCT050 BKN100 TEMPO 3010/3018 34010KT RA OVC040 =

София Дървен материал цени

София Дъски цена